Time;durP1;ratioP1;P1;durP2;ratioP2;P2;SDS_P1;SDS_P2;PMS_P1;PMS_P2;Temp;Humidity;BMP_temperature;BMP_pressure;BME280_temperature;BME280_humidity;BME280_pressure;Samples;Min_cycle;Max_cycle;Signal;HPM_P1;HPM_P2
2021/05/16 00:00:25;;;;;;;5.38;4.97;;;;;;;;;;2073468;28;20181;-64
2021/05/16 00:01:26;;;;;;;5.53;5.22;;;;;;;;;;2073643;28;20316;-64
2021/05/16 00:02:26;;;;;;;5.80;5.40;;;;;;;;;;2073283;28;20169;-66
2021/05/16 00:03:26;;;;;;;6.20;5.70;;;;;;;;;;2056669;28;20182;-65
2021/05/16 00:04:26;;;;;;;6.38;5.70;;;;;;;;;;2049003;28;20175;-64
2021/05/16 00:05:28;;;;;;;8.77;7.93;;;;;;;;;;2070869;28;20248;-63
2021/05/16 00:06:28;;;;;;;6.50;5.65;;;;;;;;;;2073527;28;20702;-63
2021/05/16 00:07:28;;;;;;;6.68;6.07;;;;;;;;;;2070308;28;20169;-63
2021/05/16 00:08:29;;;;;;;8.65;7.95;;;;;;;;;;2058629;28;20181;-63
2021/05/16 00:09:29;;;;;;;7.07;6.53;;;;;;;;;;2062884;28;20837;-63
2021/05/16 00:10:29;;;;;;;7.50;6.30;;;;;;;;;;2072789;28;20179;-64
2021/05/16 00:11:30;;;;;;;6.90;6.40;;;;;;;;;;2063687;28;20201;-64
2021/05/16 00:12:30;;;;;;;7.45;6.47;;;;;;;;;;2063737;28;20539;-65
2021/05/16 00:13:30;;;;;;;8.75;7.82;;;;;;;;;;2071349;28;20197;-65
2021/05/16 00:14:31;;;;;;;8.35;7.68;;;;;;;;;;2069367;28;20717;-58
2021/05/16 00:15:31;;;;;;;7.63;6.93;;;;;;;;;;2072363;28;20252;-65
2021/05/16 00:16:32;;;;;;;8.93;8.13;;;;;;;;;;2070925;28;20248;-63
2021/05/16 00:17:32;;;;;;;10.32;7.18;;;;;;;;;;2073384;28;20203;-64
2021/05/16 00:18:32;;;;;;;7.60;7.03;;;;;;;;;;2072842;28;20205;-64
2021/05/16 00:19:33;;;;;;;7.65;7.05;;;;;;;;;;2071549;28;20231;-63
2021/05/16 00:20:33;;;;;;;7.28;6.70;;;;;;;;;;2073006;28;20656;-61
2021/05/16 00:21:33;;;;;;;8.57;7.97;;;;;;;;;;2072971;28;20169;-64
2021/05/16 00:22:34;;;;;;;7.80;7.22;;;;;;;;;;2073923;28;20181;-61
2021/05/16 00:23:34;;;;;;;9.73;8.00;;;;;;;;;;2062045;28;20228;-64
2021/05/16 00:24:34;;;;;;;8.18;7.47;;;;;;;;;;2064084;28;20181;-63
2021/05/16 00:25:35;;;;;;;9.32;8.52;;;;;;;;;;2072948;28;20211;-64
2021/05/16 00:26:36;;;;;;;8.98;8.07;;;;;;;;;;2070808;28;20179;-64
2021/05/16 00:27:36;;;;;;;10.15;9.23;;;;;;;;;;2072210;28;20201;-65
2021/05/16 00:28:37;;;;;;;8.70;7.90;;;;;;;;;;2063068;28;20828;-64
2021/05/16 00:29:37;;;;;;;8.82;8.02;;;;;;;;;;2064095;28;20189;-64
2021/05/16 00:30:38;;;;;;;9.73;8.65;;;;;;;;;;2063876;28;20205;-64
2021/05/16 00:31:38;;;;;;;9.55;8.73;;;;;;;;;;2064035;28;20169;-62
2021/05/16 00:32:39;;;;;;;10.50;9.50;;;;;;;;;;2062538;28;20178;-64
2021/05/16 00:33:39;;;;;;;9.75;8.85;;;;;;;;;;2061595;28;20170;-63
2021/05/16 00:34:39;;;;;;;11.30;10.25;;;;;;;;;;2068567;28;20584;-64
2021/05/16 00:35:40;;;;;;;10.95;9.90;;;;;;;;;;2071021;28;20655;-64
2021/05/16 00:36:41;;;;;;;11.30;10.20;;;;;;;;;;2072773;28;20263;-64
2021/05/16 00:37:41;;;;;;;12.15;11.10;;;;;;;;;;2063075;28;20222;-64
2021/05/16 00:38:41;;;;;;;11.07;10.07;;;;;;;;;;2064477;28;20200;-64
2021/05/16 00:39:42;;;;;;;11.70;10.52;;;;;;;;;;2073183;28;20192;-65
2021/05/16 00:40:42;;;;;;;12.70;10.98;;;;;;;;;;2069309;28;20728;-62
2021/05/16 00:41:42;;;;;;;12.63;11.30;;;;;;;;;;2071616;28;20275;-63
2021/05/16 00:42:43;;;;;;;12.82;11.63;;;;;;;;;;2073139;28;20173;-63
2021/05/16 00:43:43;;;;;;;13.25;11.93;;;;;;;;;;2071418;28;20177;-65
2021/05/16 00:45:22;;;;;;;14.43;10.82;;;;;;;;;;2067767;28;20196;-64
2021/05/16 00:46:22;;;;;;;13.10;10.88;;;;;;;;;;2055411;28;20601;-64
2021/05/16 00:47:23;;;;;;;12.20;11.00;;;;;;;;;;2052059;28;20171;-61
2021/05/16 00:48:25;;;;;;;14.43;11.75;;;;;;;;;;2046412;28;20202;-64
2021/05/16 00:49:26;;;;;;;14.98;13.23;;;;;;;;;;2048970;28;20190;-64
2021/05/16 00:50:28;;;;;;;13.68;12.20;;;;;;;;;;2055966;28;20538;-64
2021/05/16 00:51:28;;;;;;;17.60;12.27;;;;;;;;;;2047986;29;20206;-64
2021/05/16 00:52:29;;;;;;;13.82;12.48;;;;;;;;;;2062713;28;20661;-63
2021/05/16 00:53:30;;;;;;;14.85;12.15;;;;;;;;;;2069930;28;20174;-65
2021/05/16 00:54:31;;;;;;;17.63;11.95;;;;;;;;;;2072487;28;20165;-65
2021/05/16 00:55:31;;;;;;;15.05;12.05;;;;;;;;;;2071749;28;20173;-65
2021/05/16 00:56:31;;;;;;;12.63;11.32;;;;;;;;;;2064361;28;20166;-65
2021/05/16 00:57:32;;;;;;;13.10;11.10;;;;;;;;;;2051978;28;20429;-64
2021/05/16 00:58:33;;;;;;;13.45;12.00;;;;;;;;;;2060780;28;20181;-64
2021/05/16 00:59:36;;;;;;;12.55;11.35;;;;;;;;;;2061643;28;20189;-64
2021/05/16 01:00:41;;;;;;;15.65;12.68;;;;;;;;;;2056093;28;20249;-64
2021/05/16 01:01:49;;;;;;;16.88;12.65;;;;;;;;;;2063759;28;20154;-65
2021/05/16 01:02:50;;;;;;;13.77;12.35;;;;;;;;;;2071667;28;20572;-64
2021/05/16 01:03:53;;;;;;;14.25;11.98;;;;;;;;;;2059800;28;20685;-65
2021/05/16 01:04:53;;;;;;;14.43;12.75;;;;;;;;;;2063679;28;20260;-66
2021/05/16 01:05:54;;;;;;;14.40;12.45;;;;;;;;;;2063724;28;20170;-65
2021/05/16 01:06:59;;;;;;;14.10;11.70;;;;;;;;;;2056362;28;20285;-66
2021/05/16 01:08:00;;;;;;;13.70;12.32;;;;;;;;;;2063878;28;20170;-66
2021/05/16 01:09:00;;;;;;;17.23;12.95;;;;;;;;;;2071439;28;20239;-66
2021/05/16 01:10:03;;;;;;;17.67;12.55;;;;;;;;;;2064306;28;20178;-66
2021/05/16 01:11:04;;;;;;;15.02;12.98;;;;;;;;;;2055746;28;20201;-66
2021/05/16 01:12:07;;;;;;;14.75;12.00;;;;;;;;;;2063183;28;20271;-66
2021/05/16 01:13:09;;;;;;;15.40;12.95;;;;;;;;;;2070598;28;20179;-67
2021/05/16 01:14:20;;;;;;;18.00;12.65;;;;;;;;;;2059043;28;20174;-64
2021/05/16 01:15:21;;;;;;;13.25;11.20;;;;;;;;;;2064987;28;20712;-65
2021/05/16 01:16:21;;;;;;;16.08;11.40;;;;;;;;;;2063497;28;20180;-64
2021/05/16 01:17:22;;;;;;;14.02;11.27;;;;;;;;;;2063866;28;20383;-58
2021/05/16 01:18:22;;;;;;;15.48;11.80;;;;;;;;;;2069459;28;20263;-65
2021/05/16 01:19:22;;;;;;;12.65;11.38;;;;;;;;;;2072116;28;20176;-62
2021/05/16 01:20:32;;;;;;;14.00;12.60;;;;;;;;;;2061636;28;20182;-64
2021/05/16 01:21:32;;;;;;;18.35;12.38;;;;;;;;;;2064851;28;20198;-64
2021/05/16 01:22:32;;;;;;;15.00;11.75;;;;;;;;;;2061975;28;20196;-64
2021/05/16 01:23:45;;;;;;;13.73;11.13;;;;;;;;;;2062830;28;20224;-63
2021/05/16 01:24:50;;;;;;;16.15;12.45;;;;;;;;;;2063241;28;20173;-65
2021/05/16 01:25:50;;;;;;;16.85;11.82;;;;;;;;;;2063483;28;20185;-64
2021/05/16 01:26:51;;;;;;;13.07;11.75;;;;;;;;;;2055501;28;20629;-66
2021/05/16 01:27:51;;;;;;;14.65;11.95;;;;;;;;;;2063318;28;20169;-64
2021/05/16 01:28:52;;;;;;;12.68;11.25;;;;;;;;;;2069309;28;20200;-66
2021/05/16 01:29:52;;;;;;;13.43;11.40;;;;;;;;;;2072241;28;20278;-63
2021/05/16 01:30:53;;;;;;;15.60;11.73;;;;;;;;;;2063347;28;20189;-64
2021/05/16 01:31:54;;;;;;;14.70;11.90;;;;;;;;;;2059471;28;20178;-65
2021/05/16 01:32:54;;;;;;;14.60;11.88;;;;;;;;;;2071754;28;20668;-66
2021/05/16 01:33:55;;;;;;;14.75;12.10;;;;;;;;;;2059499;28;20178;-65
2021/05/16 01:34:55;;;;;;;14.15;12.32;;;;;;;;;;2063782;28;20186;-66
2021/05/16 01:35:55;;;;;;;13.13;11.73;;;;;;;;;;2063456;28;20178;-66
2021/05/16 01:36:55;;;;;;;15.57;13.18;;;;;;;;;;2063661;28;20555;-65
2021/05/16 01:37:56;;;;;;;19.17;13.73;;;;;;;;;;2063162;28;20185;-65
2021/05/16 01:38:57;;;;;;;20.75;14.10;;;;;;;;;;2051926;28;20178;-64
2021/05/16 01:39:57;;;;;;;17.42;14.30;;;;;;;;;;2057734;28;20230;-65
2021/05/16 01:40:58;;;;;;;20.38;15.23;;;;;;;;;;2063553;28;20221;-65
2021/05/16 01:42:06;;;;;;;21.95;14.48;;;;;;;;;;2058996;28;20747;-65
2021/05/16 01:43:10;;;;;;;16.48;14.30;;;;;;;;;;2055951;28;20203;-65
2021/05/16 01:44:12;;;;;;;17.77;14.57;;;;;;;;;;2053494;28;20174;-65
2021/05/16 01:45:14;;;;;;;21.23;14.77;;;;;;;;;;2060180;28;20213;-66
2021/05/16 01:46:15;;;;;;;20.00;14.25;;;;;;;;;;2073549;28;20223;-66
2021/05/16 01:47:15;;;;;;;18.65;14.95;;;;;;;;;;2074609;28;20177;-65
2021/05/16 01:48:16;;;;;;;16.95;14.85;;;;;;;;;;2073388;28;20175;-66
2021/05/16 01:49:16;;;;;;;17.02;13.93;;;;;;;;;;2071094;28;20184;-66
2021/05/16 01:50:17;;;;;;;19.58;14.45;;;;;;;;;;2073728;28;20161;-65
2021/05/16 01:51:18;;;;;;;20.33;15.30;;;;;;;;;;2072397;28;20212;-64
2021/05/16 01:52:21;;;;;;;23.15;15.43;;;;;;;;;;2073772;28;20214;-65
2021/05/16 01:53:21;;;;;;;18.52;15.05;;;;;;;;;;2063957;28;20300;-64
2021/05/16 01:54:22;;;;;;;20.98;15.40;;;;;;;;;;2064963;28;20166;-65
2021/05/16 01:55:22;;;;;;;19.33;15.93;;;;;;;;;;2072661;28;20175;-64
2021/05/16 01:56:24;;;;;;;22.52;14.55;;;;;;;;;;2065255;28;20617;-65
2021/05/16 01:57:26;;;;;;;20.92;15.40;;;;;;;;;;2064640;28;20256;-65
2021/05/16 01:58:26;;;;;;;17.83;14.95;;;;;;;;;;2074317;28;20191;-65
2021/05/16 01:59:27;;;;;;;18.55;15.50;;;;;;;;;;2065023;28;20178;-66
2021/05/16 02:00:28;;;;;;;23.70;17.75;;;;;;;;;;2064843;28;20201;-66
2021/05/16 02:01:29;;;;;;;18.77;15.98;;;;;;;;;;2073419;28;20711;-65
2021/05/16 02:02:35;;;;;;;28.42;17.25;;;;;;;;;;2065200;28;20181;-66
2021/05/16 02:03:35;;;;;;;21.67;16.83;;;;;;;;;;2064461;28;20169;-66
2021/05/16 02:04:37;;;;;;;20.65;16.77;;;;;;;;;;2072903;28;20300;-65
2021/05/16 02:05:38;;;;;;;19.30;17.02;;;;;;;;;;2064970;28;20177;-65
2021/05/16 02:06:39;;;;;;;22.88;17.60;;;;;;;;;;2064718;28;20274;-65
2021/05/16 02:07:40;;;;;;;19.88;17.77;;;;;;;;;;2064411;28;20181;-64
2021/05/16 02:08:44;;;;;;;27.00;18.83;;;;;;;;;;2056637;28;20187;-64
2021/05/16 02:09:50;;;;;;;25.73;19.92;;;;;;;;;;2066074;28;20173;-64
2021/05/16 02:10:51;;;;;;;26.23;20.77;;;;;;;;;;2064786;28;20186;-64
2021/05/16 02:11:51;;;;;;;24.35;19.20;;;;;;;;;;2065640;28;20180;-65
2021/05/16 02:12:52;;;;;;;23.90;19.33;;;;;;;;;;2059702;28;20252;-64
2021/05/16 02:13:55;;;;;;;29.42;19.73;;;;;;;;;;2059344;28;20190;-64
2021/05/16 02:14:55;;;;;;;24.80;19.85;;;;;;;;;;2068273;28;20290;-64
2021/05/16 02:15:56;;;;;;;23.52;20.05;;;;;;;;;;2073526;28;20177;-65
2021/05/16 02:17:01;;;;;;;28.65;21.33;;;;;;;;;;2064590;28;20182;-67
2021/05/16 02:18:01;;;;;;;29.25;20.95;;;;;;;;;;2055461;28;20202;-63
2021/05/16 02:19:03;;;;;;;25.80;21.40;;;;;;;;;;2065752;28;20182;-64
2021/05/16 02:20:12;;;;;;;25.27;20.35;;;;;;;;;;2064576;28;20240;-65
2021/05/16 02:21:13;;;;;;;30.23;21.73;;;;;;;;;;2065374;28;20217;-65
2021/05/16 02:22:17;;;;;;;23.90;19.98;;;;;;;;;;2063006;28;20162;-66
2021/05/16 02:23:19;;;;;;;28.90;21.73;;;;;;;;;;2066412;28;20177;-66
2021/05/16 02:24:21;;;;;;;25.55;21.25;;;;;;;;;;2060429;28;20264;-66
2021/05/16 02:25:41;;;;;;;22.88;19.85;;;;;;;;;;2065469;28;20268;-65
2021/05/16 02:26:50;;;;;;;26.60;21.10;;;;;;;;;;2064996;28;20612;-65
2021/05/16 02:27:50;;;;;;;30.20;22.20;;;;;;;;;;2063770;28;20189;-65
2021/05/16 02:28:53;;;;;;;24.85;21.02;;;;;;;;;;2073368;28;20191;-63
2021/05/16 02:29:53;;;;;;;27.38;20.95;;;;;;;;;;2072870;28;20188;-64
2021/05/16 02:30:55;;;;;;;30.33;22.70;;;;;;;;;;2056704;28;20709;-65
2021/05/16 02:31:58;;;;;;;25.65;20.38;;;;;;;;;;2063828;28;20192;-63
2021/05/16 02:32:59;;;;;;;29.08;21.40;;;;;;;;;;2056707;28;20178;-64
2021/05/16 02:34:00;;;;;;;24.48;21.02;;;;;;;;;;2048228;28;20335;-64
2021/05/16 02:35:01;;;;;;;29.10;21.92;;;;;;;;;;2058420;28;20186;-64
2021/05/16 02:36:14;;;;;;;30.05;22.30;;;;;;;;;;2050837;28;20241;-64
2021/05/16 02:37:18;;;;;;;27.63;21.70;;;;;;;;;;2060170;28;20186;-62
2021/05/16 02:38:18;;;;;;;28.50;21.40;;;;;;;;;;2064002;28;20636;-64
2021/05/16 02:39:19;;;;;;;32.80;22.63;;;;;;;;;;2073532;28;20169;-64
2021/05/16 02:40:19;;;;;;;28.70;22.63;;;;;;;;;;2064502;28;20192;-63
2021/05/16 02:41:20;;;;;;;28.73;23.60;;;;;;;;;;2045818;28;20195;-64
2021/05/16 02:42:21;;;;;;;28.08;23.77;;;;;;;;;;2056425;28;20233;-64
2021/05/16 02:43:21;;;;;;;27.58;23.60;;;;;;;;;;2068220;28;20767;-64
2021/05/16 02:44:22;;;;;;;27.27;23.83;;;;;;;;;;2064599;28;20185;-64
2021/05/16 02:45:24;;;;;;;34.22;24.08;;;;;;;;;;2053507;28;20257;-63
2021/05/16 02:46:28;;;;;;;32.03;22.88;;;;;;;;;;2056509;28;20675;-64
2021/05/16 02:47:29;;;;;;;28.48;24.98;;;;;;;;;;2061320;28;20252;-60
2021/05/16 02:48:29;;;;;;;31.27;23.98;;;;;;;;;;2064264;28;20276;-63
2021/05/16 02:49:30;;;;;;;31.30;23.83;;;;;;;;;;2070546;28;20196;-64
2021/05/16 02:50:30;;;;;;;33.33;24.50;;;;;;;;;;2070791;28;20652;-65
2021/05/16 02:51:36;;;;;;;32.50;23.80;;;;;;;;;;2072632;28;20208;-64
2021/05/16 02:52:37;;;;;;;32.88;24.33;;;;;;;;;;2064770;28;20185;-63
2021/05/16 02:53:39;;;;;;;34.47;23.77;;;;;;;;;;2061219;28;20182;-65
2021/05/16 02:54:39;;;;;;;30.13;24.60;;;;;;;;;;2064518;28;20597;-65
2021/05/16 02:55:40;;;;;;;27.48;24.40;;;;;;;;;;2072903;28;20672;-65
2021/05/16 02:56:41;;;;;;;33.65;24.35;;;;;;;;;;2073090;28;20181;-64
2021/05/16 02:57:42;;;;;;;30.33;24.33;;;;;;;;;;2067305;28;20169;-64
2021/05/16 02:58:43;;;;;;;33.53;24.35;;;;;;;;;;2059019;28;20670;-64
2021/05/16 02:59:44;;;;;;;33.58;24.10;;;;;;;;;;2055424;28;20190;-64
2021/05/16 03:00:45;;;;;;;31.33;24.27;;;;;;;;;;2057102;28;20621;-64
2021/05/16 03:01:46;;;;;;;31.17;24.33;;;;;;;;;;2064621;28;20200;-65
2021/05/16 03:02:46;;;;;;;25.20;22.55;;;;;;;;;;2064250;28;20688;-64
2021/05/16 03:03:46;;;;;;;26.55;22.20;;;;;;;;;;2064007;28;20232;-64
2021/05/16 03:04:47;;;;;;;29.63;23.90;;;;;;;;;;2073920;28;20169;-65
2021/05/16 03:05:48;;;;;;;27.80;22.42;;;;;;;;;;2064300;28;20224;-65
2021/05/16 03:06:49;;;;;;;30.15;22.92;;;;;;;;;;2049918;28;20605;-64
2021/05/16 03:07:50;;;;;;;26.27;22.33;;;;;;;;;;2055231;28;20206;-64
2021/05/16 03:08:50;;;;;;;29.02;22.85;;;;;;;;;;2061607;28;20574;-64
2021/05/16 03:09:56;;;;;;;26.33;21.58;;;;;;;;;;2073789;28;20173;-65
2021/05/16 03:10:56;;;;;;;24.00;20.95;;;;;;;;;;2064680;28;20216;-64
2021/05/16 03:11:57;;;;;;;33.35;22.63;;;;;;;;;;2056328;28;20261;-64
2021/05/16 03:12:57;;;;;;;28.52;21.48;;;;;;;;;;2055587;28;20178;-64
2021/05/16 03:13:58;;;;;;;25.80;21.77;;;;;;;;;;2057287;28;20934;-65
2021/05/16 03:15:03;;;;;;;28.23;23.88;;;;;;;;;;2067403;28;20300;-64
2021/05/16 03:16:04;;;;;;;27.70;23.33;;;;;;;;;;2072396;28;20193;-65
2021/05/16 03:17:04;;;;;;;23.83;21.33;;;;;;;;;;2068679;28;20169;-63
2021/05/16 03:18:05;;;;;;;28.42;21.05;;;;;;;;;;2064394;28;20610;-64
2021/05/16 03:19:07;;;;;;;23.15;19.98;;;;;;;;;;2061415;28;20178;-63
2021/05/16 03:20:16;;;;;;;25.75;21.00;;;;;;;;;;2064255;28;20265;-64
2021/05/16 03:21:16;;;;;;;22.13;18.63;;;;;;;;;;2056235;28;20210;-64
2021/05/16 03:22:17;;;;;;;22.67;18.83;;;;;;;;;;2051770;28;20170;-66
2021/05/16 03:23:19;;;;;;;21.92;19.58;;;;;;;;;;2055236;28;20189;-65
2021/05/16 03:24:20;;;;;;;23.45;17.08;;;;;;;;;;2056819;28;20595;-63
2021/05/16 03:25:20;;;;;;;18.88;16.85;;;;;;;;;;2063824;28;20232;-65
2021/05/16 03:26:23;;;;;;;21.33;17.02;;;;;;;;;;2064955;28;20177;-64
2021/05/16 03:27:23;;;;;;;23.50;16.20;;;;;;;;;;2069409;28;20264;-63
2021/05/16 03:28:24;;;;;;;24.23;16.10;;;;;;;;;;2064690;28;20666;-64
2021/05/16 03:29:24;;;;;;;20.75;15.38;;;;;;;;;;2064678;28;20180;-65
2021/05/16 03:30:24;;;;;;;20.05;14.82;;;;;;;;;;2072665;28;20200;-65
2021/05/16 03:31:25;;;;;;;16.88;14.88;;;;;;;;;;2069641;28;20235;-65
2021/05/16 03:32:25;;;;;;;19.25;14.95;;;;;;;;;;2063896;28;20173;-64
2021/05/16 03:33:25;;;;;;;21.75;15.80;;;;;;;;;;2064959;28;20205;-66
2021/05/16 03:34:25;;;;;;;17.77;14.77;;;;;;;;;;2071317;28;20612;-64
2021/05/16 03:35:26;;;;;;;20.27;14.88;;;;;;;;;;2069886;28;20172;-65
2021/05/16 03:36:26;;;;;;;18.85;14.88;;;;;;;;;;2072930;28;20546;-65
2021/05/16 03:37:26;;;;;;;18.67;15.88;;;;;;;;;;2073128;28;20181;-66
2021/05/16 03:38:27;;;;;;;22.67;16.90;;;;;;;;;;2073086;28;20184;-65
2021/05/16 03:39:27;;;;;;;22.85;17.05;;;;;;;;;;2071238;28;20180;-65
2021/05/16 03:40:27;;;;;;;21.15;16.95;;;;;;;;;;2073043;28;20185;-65
2021/05/16 03:41:27;;;;;;;21.27;17.17;;;;;;;;;;2073301;28;20197;-62
2021/05/16 03:42:28;;;;;;;24.48;16.35;;;;;;;;;;2069256;28;20838;-65
2021/05/16 03:43:28;;;;;;;20.67;16.73;;;;;;;;;;2068631;28;20204;-65
2021/05/16 03:44:28;;;;;;;21.42;16.60;;;;;;;;;;2060717;28;20928;-65
2021/05/16 03:45:29;;;;;;;19.25;16.55;;;;;;;;;;2068841;28;20877;-66
2021/05/16 03:46:29;;;;;;;23.45;16.55;;;;;;;;;;2072777;28;20201;-65
2021/05/16 03:47:29;;;;;;;22.38;17.77;;;;;;;;;;2071524;28;20553;-65
2021/05/16 03:48:30;;;;;;;18.23;16.23;;;;;;;;;;2056505;28;20566;-66
2021/05/16 03:49:30;;;;;;;20.98;16.17;;;;;;;;;;2055899;28;20184;-65
2021/05/16 03:50:31;;;;;;;21.77;17.55;;;;;;;;;;2073603;28;20191;-66
2021/05/16 03:51:31;;;;;;;20.75;16.52;;;;;;;;;;2077569;23;22038;-56
2021/05/16 03:52:31;;;;;;;22.05;16.60;;;;;;;;;;2065348;28;20178;-55
2021/05/16 03:53:32;;;;;;;21.13;17.27;;;;;;;;;;2071075;28;20173;-55
2021/05/16 03:54:32;;;;;;;21.05;16.48;;;;;;;;;;2070026;28;20314;-57
2021/05/16 03:55:33;;;;;;;21.73;17.15;;;;;;;;;;2073878;28;20188;-58
2021/05/16 03:56:33;;;;;;;21.70;17.05;;;;;;;;;;2072370;28;20166;-57
2021/05/16 03:57:33;;;;;;;19.65;17.33;;;;;;;;;;2072381;28;20172;-57
2021/05/16 03:58:34;;;;;;;23.40;18.15;;;;;;;;;;2071855;28;20177;-58
2021/05/16 03:59:34;;;;;;;25.17;19.58;;;;;;;;;;2073081;28;20238;-57
2021/05/16 04:00:34;;;;;;;24.50;19.25;;;;;;;;;;2071181;28;20180;-56
2021/05/16 04:01:35;;;;;;;26.85;19.98;;;;;;;;;;2064979;28;20185;-55
2021/05/16 04:02:35;;;;;;;25.63;20.65;;;;;;;;;;2064659;28;20228;-55
2021/05/16 04:03:35;;;;;;;29.70;21.92;;;;;;;;;;2065152;28;20708;-55
2021/05/16 04:04:36;;;;;;;28.80;22.05;;;;;;;;;;2064525;28;20213;-61
2021/05/16 04:05:36;;;;;;;27.63;21.75;;;;;;;;;;2064060;28;20312;-59
2021/05/16 04:06:36;;;;;;;35.53;24.85;;;;;;;;;;2062653;28;20253;-59
2021/05/16 04:07:36;;;;;;;33.88;25.77;;;;;;;;;;2063724;28;20276;-59
2021/05/16 04:08:37;;;;;;;36.03;25.98;;;;;;;;;;2064482;28;20264;-58
2021/05/16 04:09:37;;;;;;;34.35;24.52;;;;;;;;;;2059793;28;20189;-58
2021/05/16 04:10:37;;;;;;;41.00;26.48;;;;;;;;;;2062192;28;20173;-55
2021/05/16 04:11:38;;;;;;;37.13;28.65;;;;;;;;;;2062990;28;20197;-57
2021/05/16 04:12:38;;;;;;;39.95;27.23;;;;;;;;;;2062036;28;20227;-56
2021/05/16 04:13:38;;;;;;;40.85;28.75;;;;;;;;;;2060719;28;20620;-55
2021/05/16 04:14:39;;;;;;;41.40;28.85;;;;;;;;;;2060020;28;20178;-56
2021/05/16 04:15:39;;;;;;;42.88;28.52;;;;;;;;;;2062332;28;20645;-56
2021/05/16 04:16:39;;;;;;;38.75;28.88;;;;;;;;;;2064624;28;20265;-58
2021/05/16 04:17:39;;;;;;;46.92;31.40;;;;;;;;;;2064204;28;20722;-57
2021/05/16 04:18:40;;;;;;;41.53;30.17;;;;;;;;;;2061335;28;20182;-58
2021/05/16 04:19:40;;;;;;;44.70;30.52;;;;;;;;;;2064468;28;20642;-58
2021/05/16 04:20:40;;;;;;;42.88;30.65;;;;;;;;;;2069760;28;20169;-60
2021/05/16 04:21:41;;;;;;;43.03;30.92;;;;;;;;;;2051593;28;20935;-58
2021/05/16 04:22:41;;;;;;;48.35;32.50;;;;;;;;;;2062540;28;20174;-59
2021/05/16 04:23:41;;;;;;;46.92;31.63;;;;;;;;;;2064363;28;20180;-56
2021/05/16 04:24:42;;;;;;;48.80;31.35;;;;;;;;;;2062740;28;20177;-58
2021/05/16 04:25:42;;;;;;;56.60;33.20;;;;;;;;;;2061449;28;20175;-57
2021/05/16 04:26:42;;;;;;;51.08;32.85;;;;;;;;;;2058415;28;20180;-55
2021/05/16 04:27:42;;;;;;;52.55;34.67;;;;;;;;;;2061467;28;20182;-57
2021/05/16 04:28:43;;;;;;;51.28;33.15;;;;;;;;;;2065105;28;20184;-56
2021/05/16 04:29:44;;;;;;;53.58;33.22;;;;;;;;;;2064606;28;20170;-57
2021/05/16 04:30:44;;;;;;;46.83;32.83;;;;;;;;;;2064654;28;20170;-57
2021/05/16 04:31:45;;;;;;;63.83;34.80;;;;;;;;;;2063972;28;20205;-54
2021/05/16 04:32:45;;;;;;;46.00;32.28;;;;;;;;;;2064041;28;20496;-55
2021/05/16 04:33:45;;;;;;;47.75;33.63;;;;;;;;;;2061740;28;20205;-54
2021/05/16 04:34:45;;;;;;;50.65;33.75;;;;;;;;;;2058607;28;20247;-55
2021/05/16 04:35:46;;;;;;;51.38;34.30;;;;;;;;;;2063382;28;20178;-57
2021/05/16 04:36:46;;;;;;;51.58;33.47;;;;;;;;;;2064632;28;20268;-55
2021/05/16 04:37:46;;;;;;;50.80;33.00;;;;;;;;;;2062881;28;20185;-55
2021/05/16 04:38:48;;;;;;;48.88;33.33;;;;;;;;;;2061074;28;20670;-59
2021/05/16 04:39:48;;;;;;;44.05;32.28;;;;;;;;;;2058296;28;20643;-56
2021/05/16 04:40:48;;;;;;;43.20;31.05;;;;;;;;;;2063454;28;20170;-59
2021/05/16 04:41:49;;;;;;;49.35;32.15;;;;;;;;;;2058685;28;20674;-55
2021/05/16 04:42:49;;;;;;;46.00;32.65;;;;;;;;;;2063872;28;20604;-56
2021/05/16 04:43:49;;;;;;;46.50;31.95;;;;;;;;;;2064970;28;20549;-58
2021/05/16 04:44:49;;;;;;;46.80;32.40;;;;;;;;;;2063489;28;20649;-56
2021/05/16 04:45:50;;;;;;;55.83;32.67;;;;;;;;;;2064593;28;20646;-55
2021/05/16 04:46:50;;;;;;;50.17;32.60;;;;;;;;;;2062581;28;20217;-58
2021/05/16 04:47:50;;;;;;;47.35;32.42;;;;;;;;;;2064013;28;20181;-54
2021/05/16 04:48:51;;;;;;;52.25;32.35;;;;;;;;;;2064288;28;20684;-56
2021/05/16 04:49:51;;;;;;;48.60;33.13;;;;;;;;;;2057923;28;20181;-55
2021/05/16 04:50:52;;;;;;;48.38;32.53;;;;;;;;;;2057103;28;20178;-58
2021/05/16 04:51:52;;;;;;;50.05;30.20;;;;;;;;;;2056963;28;20238;-55
2021/05/16 04:52:52;;;;;;;49.03;31.10;;;;;;;;;;2057361;28;20531;-57
2021/05/16 04:53:53;;;;;;;52.83;30.83;;;;;;;;;;2057120;28;20976;-57
2021/05/16 04:54:53;;;;;;;49.08;31.30;;;;;;;;;;2057257;28;20206;-54
2021/05/16 04:55:53;;;;;;;48.55;28.48;;;;;;;;;;2062038;28;20525;-54
2021/05/16 04:56:54;;;;;;;43.22;30.30;;;;;;;;;;2065146;28;20172;-55
2021/05/16 04:57:54;;;;;;;42.83;29.80;;;;;;;;;;2064804;28;20180;-55
2021/05/16 04:58:54;;;;;;;47.53;30.73;;;;;;;;;;2061164;28;20178;-54
2021/05/16 04:59:55;;;;;;;51.13;30.40;;;;;;;;;;2059569;28;20178;-54
2021/05/16 05:00:55;;;;;;;46.50;29.80;;;;;;;;;;2064234;28;20646;-52
2021/05/16 05:01:55;;;;;;;46.80;30.02;;;;;;;;;;2064329;28;20189;-56
2021/05/16 05:02:57;;;;;;;38.60;28.60;;;;;;;;;;2065274;28;20623;-57
2021/05/16 05:03:58;;;;;;;47.17;30.42;;;;;;;;;;2061873;28;20326;-56
2021/05/16 05:04:59;;;;;;;42.58;28.40;;;;;;;;;;2057745;28;20166;-58
2021/05/16 05:05:59;;;;;;;45.15;29.02;;;;;;;;;;2065431;28;20188;-56
2021/05/16 05:06:59;;;;;;;44.35;27.70;;;;;;;;;;2065511;28;20282;-59
2021/05/16 05:08:00;;;;;;;44.80;30.15;;;;;;;;;;2057040;28;20174;-57
2021/05/16 05:09:02;;;;;;;41.63;28.02;;;;;;;;;;2060807;28;20348;-55
2021/05/16 05:10:03;;;;;;;41.00;27.60;;;;;;;;;;2065290;28;20221;-55
2021/05/16 05:11:03;;;;;;;47.13;28.92;;;;;;;;;;2073222;28;20637;-56
2021/05/16 05:12:03;;;;;;;42.85;29.90;;;;;;;;;;2057834;28;20213;-56
2021/05/16 05:13:04;;;;;;;42.25;28.33;;;;;;;;;;2055697;28;20265;-59
2021/05/16 05:14:04;;;;;;;48.28;28.40;;;;;;;;;;2064189;28;20178;-58
2021/05/16 05:15:05;;;;;;;40.83;28.60;;;;;;;;;;2057558;28;20166;-59
2021/05/16 05:16:05;;;;;;;47.20;27.60;;;;;;;;;;2065446;28;20184;-58
2021/05/16 05:17:05;;;;;;;46.50;29.98;;;;;;;;;;2059482;28;20544;-56
2021/05/16 05:18:06;;;;;;;46.97;28.50;;;;;;;;;;2062069;28;20181;-58
2021/05/16 05:19:06;;;;;;;44.20;28.77;;;;;;;;;;2067642;28;20192;-55
2021/05/16 05:20:07;;;;;;;39.10;27.77;;;;;;;;;;2059596;28;20178;-58
2021/05/16 05:21:08;;;;;;;41.35;27.60;;;;;;;;;;2061540;28;20202;-58
2021/05/16 05:22:08;;;;;;;42.63;28.60;;;;;;;;;;2066841;28;20176;-55
2021/05/16 05:23:09;;;;;;;41.80;26.38;;;;;;;;;;2065186;28;20173;-58
2021/05/16 05:24:09;;;;;;;41.65;27.38;;;;;;;;;;2063529;28;20186;-58
2021/05/16 05:25:09;;;;;;;47.47;28.88;;;;;;;;;;2057266;28;20178;-55
2021/05/16 05:26:10;;;;;;;39.45;28.08;;;;;;;;;;2058192;28;20178;-57
2021/05/16 05:27:10;;;;;;;41.92;27.27;;;;;;;;;;2065862;28;20173;-58
2021/05/16 05:28:10;;;;;;;40.92;28.00;;;;;;;;;;2066795;28;20231;-58
2021/05/16 05:29:10;;;;;;;39.30;26.75;;;;;;;;;;2065653;28;20177;-58
2021/05/16 05:30:11;;;;;;;43.05;25.92;;;;;;;;;;2058165;28;20174;-59
2021/05/16 05:31:11;;;;;;;44.47;24.77;;;;;;;;;;2060527;28;20193;-56
2021/05/16 05:32:13;;;;;;;43.78;25.95;;;;;;;;;;2066428;28;20169;-57
2021/05/16 05:33:14;;;;;;;39.55;26.85;;;;;;;;;;2067199;28;20181;-56
2021/05/16 05:34:14;;;;;;;52.13;27.38;;;;;;;;;;2063366;28;20189;-55
2021/05/16 05:35:14;;;;;;;41.22;26.13;;;;;;;;;;2066394;28;20202;-57
2021/05/16 05:36:14;;;;;;;39.33;25.65;;;;;;;;;;2066320;28;20181;-56
2021/05/16 05:37:15;;;;;;;32.92;25.60;;;;;;;;;;2063735;28;20192;-56
2021/05/16 05:38:15;;;;;;;39.40;25.75;;;;;;;;;;2057945;28;20209;-54
2021/05/16 05:39:15;;;;;;;38.85;24.52;;;;;;;;;;2062643;28;20177;-56
2021/05/16 05:40:16;;;;;;;32.35;23.30;;;;;;;;;;2061650;28;20185;-57
2021/05/16 05:41:16;;;;;;;32.17;23.33;;;;;;;;;;2066043;28;20217;-56
2021/05/16 05:42:16;;;;;;;43.15;24.52;;;;;;;;;;2065699;28;20648;-56
2021/05/16 05:43:16;;;;;;;36.80;23.77;;;;;;;;;;2066100;28;20185;-59
2021/05/16 05:44:17;;;;;;;37.45;23.25;;;;;;;;;;2065290;28;20208;-58
2021/05/16 05:45:17;;;;;;;31.00;23.83;;;;;;;;;;2061379;28;20209;-54
2021/05/16 05:46:17;;;;;;;34.47;22.88;;;;;;;;;;2065689;28;20215;-60
2021/05/16 05:47:18;;;;;;;30.33;21.27;;;;;;;;;;2064830;28;20181;-55
2021/05/16 05:48:18;;;;;;;29.83;22.67;;;;;;;;;;2065033;28;20684;-56
2021/05/16 05:49:18;;;;;;;28.85;19.98;;;;;;;;;;2063447;28;20182;-58
2021/05/16 05:50:19;;;;;;;31.55;22.15;;;;;;;;;;2057680;28;20191;-55
2021/05/16 05:51:20;;;;;;;31.30;22.67;;;;;;;;;;2055457;28;20313;-55
2021/05/16 05:52:20;;;;;;;34.17;23.73;;;;;;;;;;2062980;28;20166;-56
2021/05/16 05:53:21;;;;;;;29.73;22.02;;;;;;;;;;2063762;28;20414;-57
2021/05/16 05:54:22;;;;;;;34.67;24.23;;;;;;;;;;2064514;28;20178;-57
2021/05/16 05:55:22;;;;;;;41.45;25.33;;;;;;;;;;2066963;28;20209;-55
2021/05/16 05:56:22;;;;;;;32.40;23.23;;;;;;;;;;2064594;28;20284;-58